createdAt,value
2018-11-14T00:02:27.315Z,9.60
2018-11-14T00:04:55.375Z,11.97
2018-11-14T00:07:23.430Z,8.60
2018-11-14T00:09:51.466Z,10.57
2018-11-14T00:12:19.509Z,7.87
2018-11-14T00:14:47.666Z,14.77
2018-11-14T00:17:16.162Z,10.70
2018-11-14T00:19:44.224Z,10.30
2018-11-14T00:22:12.456Z,11.67
2018-11-14T00:24:40.528Z,10.77
2018-11-14T00:27:08.636Z,12.60
2018-11-14T00:29:36.673Z,7.33
2018-11-14T00:32:04.898Z,9.47
2018-11-14T00:34:32.974Z,13.27
2018-11-14T00:37:01.018Z,9.10
2018-11-14T00:39:29.040Z,14.27
2018-11-14T00:41:57.093Z,12.23
2018-11-14T00:44:25.136Z,9.20
2018-11-14T00:46:53.245Z,12.47
2018-11-14T00:49:21.297Z,11.10
2018-11-14T00:51:49.341Z,10.07
2018-11-14T00:54:17.385Z,10.33
2018-11-14T00:56:45.434Z,14.20
2018-11-14T00:59:13.449Z,8.37
2018-11-14T01:01:41.579Z,11.67
2018-11-14T01:04:09.812Z,13.93
2018-11-14T01:06:37.876Z,12.07
2018-11-14T01:09:06.884Z,10.60
2018-11-14T01:11:34.999Z,8.80
2018-11-14T01:14:03.025Z,13.90
2018-11-14T01:16:31.052Z,13.03
2018-11-14T01:18:59.129Z,12.37
2018-11-14T01:21:27.194Z,15.80
2018-11-14T01:23:55.266Z,12.97
2018-11-14T01:26:23.340Z,13.17
2018-11-14T01:28:51.393Z,12.53
2018-11-14T01:31:19.433Z,12.43
2018-11-14T01:33:47.498Z,17.67
2018-11-14T01:36:15.565Z,11.70
2018-11-14T01:38:43.604Z,12.40
2018-11-14T01:41:11.778Z,14.10
2018-11-14T01:43:39.750Z,13.20
2018-11-14T01:46:07.829Z,13.07
2018-11-14T01:48:35.889Z,12.23
2018-11-14T01:51:03.997Z,13.07
2018-11-14T01:53:32.035Z,14.63
2018-11-14T01:56:00.090Z,14.20
2018-11-14T01:58:28.159Z,14.57
2018-11-14T02:00:56.240Z,13.37
2018-11-14T02:03:24.268Z,11.80
2018-11-14T02:05:52.325Z,11.30
2018-11-14T02:08:20.422Z,15.00
2018-11-14T02:10:48.503Z,14.40
2018-11-14T02:13:16.543Z,18.97
2018-11-14T02:15:44.582Z,17.73
2018-11-14T02:18:12.612Z,15.90
2018-11-14T02:20:40.865Z,12.77
2018-11-14T02:23:08.927Z,15.40
2018-11-14T02:25:36.968Z,16.10
2018-11-14T02:28:05.372Z,18.53
2018-11-14T02:30:33.409Z,16.03
2018-11-14T02:33:01.467Z,17.17
2018-11-14T02:35:29.532Z,16.80
2018-11-14T02:37:57.633Z,17.13
2018-11-14T02:40:25.750Z,17.37
2018-11-14T02:42:53.859Z,16.27
2018-11-14T02:45:21.900Z,14.50
2018-11-14T02:47:49.984Z,15.93
2018-11-14T02:50:18.489Z,17.40
2018-11-14T02:52:46.544Z,17.70
2018-11-14T02:55:15.758Z,19.20
2018-11-14T02:57:44.261Z,20.50
2018-11-14T03:00:14.953Z,20.40
2018-11-14T03:02:43.505Z,16.20
2018-11-14T03:05:11.557Z,19.63
2018-11-14T03:07:39.677Z,18.50
2018-11-14T03:10:08.769Z,16.60
2018-11-14T03:12:36.947Z,20.77
2018-11-14T03:15:06.192Z,19.33
2018-11-14T03:17:34.263Z,19.90
2018-11-14T03:20:02.345Z,16.53
2018-11-14T03:22:30.398Z,15.70
2018-11-14T03:24:58.470Z,17.20
2018-11-14T03:27:26.550Z,17.73
2018-11-14T03:29:54.668Z,16.53
2018-11-14T03:32:22.700Z,19.23
2018-11-14T03:34:50.799Z,23.13
2018-11-14T03:37:18.865Z,20.87
2018-11-14T03:39:46.912Z,17.07
2018-11-14T03:42:14.993Z,18.67
2018-11-14T03:44:43.041Z,18.57
2018-11-14T03:47:11.101Z,16.30
2018-11-14T03:49:39.151Z,16.03
2018-11-14T03:52:07.604Z,18.63
2018-11-14T03:54:35.726Z,18.27
2018-11-14T03:57:03.829Z,20.17
2018-11-14T03:59:31.888Z,18.90
2018-11-14T04:01:59.957Z,22.07
2018-11-14T04:04:27.991Z,18.77
2018-11-14T04:06:56.044Z,21.43
2018-11-14T04:09:24.165Z,21.27
2018-11-14T04:11:52.203Z,23.57
2018-11-14T04:14:20.255Z,20.63
2018-11-14T04:16:48.297Z,26.97
2018-11-14T04:19:16.384Z,23.97
2018-11-14T04:21:44.458Z,23.10
2018-11-14T04:24:12.527Z,22.73
2018-11-14T04:26:40.633Z,26.07
2018-11-14T04:29:08.689Z,26.43
2018-11-14T04:31:36.775Z,22.33
2018-11-14T04:34:05.146Z,20.30
2018-11-14T04:36:33.305Z,23.63
2018-11-14T04:39:01.362Z,20.90
2018-11-14T04:41:29.449Z,24.53
2018-11-14T04:43:57.497Z,25.43
2018-11-14T04:46:25.581Z,22.33
2018-11-14T04:48:53.612Z,23.13
2018-11-14T04:51:21.725Z,27.97
2018-11-14T04:53:49.784Z,23.63
2018-11-14T04:56:17.866Z,26.83
2018-11-14T04:58:45.917Z,27.27
2018-11-14T05:01:13.941Z,23.33
2018-11-14T05:03:41.984Z,24.63
2018-11-14T05:06:10.007Z,24.00
2018-11-14T05:08:38.055Z,24.63
2018-11-14T05:11:06.105Z,27.03
2018-11-14T05:13:34.128Z,28.90
2018-11-14T05:16:02.185Z,31.50
2018-11-14T05:18:30.217Z,28.83
2018-11-14T05:20:58.261Z,30.80
2018-11-14T05:23:26.297Z,23.83
2018-11-14T05:25:54.334Z,24.60
2018-11-14T05:28:22.539Z,24.10
2018-11-14T05:30:50.568Z,25.63
2018-11-14T05:33:18.585Z,26.10
2018-11-14T05:35:46.629Z,23.47
2018-11-14T05:38:14.682Z,27.40
2018-11-14T05:40:42.768Z,24.97
2018-11-14T05:43:10.781Z,23.90
2018-11-14T05:45:38.890Z,28.43
2018-11-14T05:48:06.876Z,27.97
2018-11-14T05:50:34.893Z,28.50
2018-11-14T05:53:02.933Z,25.73
2018-11-14T05:55:30.990Z,24.33
2018-11-14T05:57:59.037Z,24.80
2018-11-14T06:00:29.157Z,25.13
2018-11-14T06:02:57.489Z,26.93
2018-11-14T06:05:25.549Z,26.90
2018-11-14T06:07:53.745Z,29.40
2018-11-14T06:10:21.784Z,28.60
2018-11-14T06:12:49.872Z,23.03
2018-11-14T06:15:19.039Z,24.40
2018-11-14T06:17:47.470Z,29.10
2018-11-14T06:20:16.767Z,26.93
2018-11-14T06:22:45.891Z,27.63
2018-11-14T06:25:23.337Z,28.10
2018-11-14T06:27:52.368Z,31.13
2018-11-14T06:30:20.810Z,33.27
2018-11-14T06:32:49.001Z,32.20
2018-11-14T06:35:17.609Z,30.30
2018-11-14T06:37:45.660Z,25.23
2018-11-14T06:40:13.709Z,26.33
2018-11-14T06:42:41.900Z,31.80
2018-11-14T06:45:11.898Z,32.27
2018-11-14T06:47:40.394Z,25.30
2018-11-14T06:50:08.828Z,28.27
2018-11-14T06:52:37.229Z,29.37
2018-11-14T06:55:05.941Z,28.67
2018-11-14T06:57:34.030Z,27.87
2018-11-14T07:00:02.115Z,27.87
2018-11-14T07:02:30.516Z,27.17
2018-11-14T07:04:58.612Z,31.67
2018-11-14T07:07:26.810Z,31.17
2018-11-14T07:09:55.268Z,31.40
2018-11-14T07:12:27.194Z,34.43
2018-11-14T07:14:55.332Z,38.23
2018-11-14T07:17:23.541Z,32.60
2018-11-14T07:19:51.784Z,37.93
2018-11-14T07:22:19.918Z,34.40
2018-11-14T07:24:48.752Z,28.60
2018-11-14T07:27:16.859Z,32.47
2018-11-14T07:29:44.964Z,30.93
2018-11-14T07:32:13.009Z,25.57
2018-11-14T07:34:41.386Z,28.43
2018-11-14T07:37:09.558Z,26.17
2018-11-14T07:39:37.631Z,24.40
2018-11-14T07:42:05.663Z,28.27
2018-11-14T07:44:33.810Z,24.10
2018-11-14T07:47:01.842Z,26.53
2018-11-14T07:49:30.118Z,24.37
2018-11-14T07:51:58.146Z,27.60
2018-11-14T07:54:26.251Z,23.63
2018-11-14T07:56:54.303Z,28.43
2018-11-14T07:59:22.385Z,35.90
2018-11-14T08:01:50.543Z,26.33
2018-11-14T08:04:18.778Z,28.40
2018-11-14T08:06:46.892Z,23.57
2018-11-14T08:09:14.953Z,30.33
2018-11-14T08:11:43.004Z,23.53
2018-11-14T08:14:11.069Z,29.33
2018-11-14T08:16:39.111Z,25.13
2018-11-14T08:19:07.374Z,26.57
2018-11-14T08:21:35.453Z,25.90
2018-11-14T08:24:04.393Z,26.53
2018-11-14T08:26:32.417Z,27.67
2018-11-14T08:29:00.625Z,28.67
2018-11-14T08:31:28.688Z,29.10
2018-11-14T08:33:56.754Z,26.80
2018-11-14T08:36:24.814Z,24.63
2018-11-14T08:38:52.855Z,25.90
2018-11-14T08:41:20.902Z,23.10
2018-11-14T08:43:48.970Z,25.60
2018-11-14T08:46:17.153Z,23.97
2018-11-14T08:48:45.197Z,25.90
2018-11-14T08:51:15.896Z,26.27
2018-11-14T08:53:47.373Z,26.37
2018-11-14T08:56:40.926Z,27.03
2018-11-14T08:59:09.091Z,27.27
2018-11-14T09:01:39.402Z,28.87
2018-11-14T09:04:10.912Z,47.20
2018-11-14T09:06:38.938Z,24.60
2018-11-14T09:09:08.240Z,27.70
2018-11-14T09:11:36.424Z,29.57
2018-11-14T09:14:04.597Z,30.93
2018-11-14T09:16:32.634Z,29.50
2018-11-14T09:19:00.697Z,21.37
2018-11-14T09:21:28.743Z,22.47
2018-11-14T09:23:56.914Z,28.20
2018-11-14T09:26:24.956Z,23.27
2018-11-14T09:28:53.009Z,19.67
2018-11-14T09:31:21.056Z,21.57
2018-11-14T09:33:49.197Z,17.70
2018-11-14T09:36:17.578Z,25.03
2018-11-14T09:38:45.748Z,24.40
2018-11-14T09:41:13.806Z,24.13
2018-11-14T09:43:41.986Z,19.97
2018-11-14T09:46:10.077Z,24.50
2018-11-14T09:48:38.197Z,23.23
2018-11-14T09:51:06.417Z,24.80
2018-11-14T09:53:34.454Z,21.60
2018-11-14T09:56:02.537Z,25.20
2018-11-14T09:58:30.562Z,22.97
2018-11-14T10:00:58.630Z,24.87
2018-11-14T10:03:26.723Z,26.33
2018-11-14T10:05:54.805Z,21.83
2018-11-14T10:08:22.850Z,20.43
2018-11-14T10:10:50.910Z,23.80
2018-11-14T10:13:18.966Z,20.47
2018-11-14T10:15:47.207Z,20.50
2018-11-14T10:18:16.003Z,21.10
2018-11-14T10:20:44.074Z,20.87
2018-11-14T10:23:12.094Z,21.77
2018-11-14T10:25:40.172Z,20.33
2018-11-14T10:28:08.217Z,23.00
2018-11-14T10:30:36.593Z,23.50
2018-11-14T10:33:04.822Z,18.53
2018-11-14T10:35:32.858Z,22.13
2018-11-14T10:38:00.914Z,22.30
2018-11-14T10:40:29.191Z,19.33
2018-11-14T10:42:57.505Z,18.13
2018-11-14T10:45:26.452Z,22.40
2018-11-14T10:47:54.506Z,23.20
2018-11-14T10:50:23.846Z,18.27
2018-11-14T10:52:51.916Z,23.07
2018-11-14T10:55:20.495Z,24.03
2018-11-14T10:57:48.532Z,23.60
2018-11-14T11:00:23.035Z,20.17
2018-11-14T11:02:56.769Z,22.87
2018-11-14T11:06:31.046Z,25.70
2018-11-14T11:09:04.558Z,22.03
2018-11-14T11:11:38.246Z,20.93
2018-11-14T11:14:11.953Z,20.30
2018-11-14T11:16:45.917Z,17.60
2018-11-14T11:19:14.869Z,23.67
2018-11-14T11:21:43.198Z,17.57
2018-11-14T11:24:11.689Z,16.37
2018-11-14T11:26:39.837Z,16.30
2018-11-14T11:29:09.437Z,23.10
2018-11-14T11:31:37.739Z,21.70
2018-11-14T11:34:05.981Z,19.53
2018-11-14T11:36:34.018Z,20.97
2018-11-14T11:39:02.503Z,22.20
2018-11-14T11:41:30.545Z,25.67
2018-11-14T11:43:58.605Z,19.80
2018-11-14T11:46:26.661Z,20.43
2018-11-14T11:48:54.713Z,23.60
2018-11-14T11:51:22.817Z,20.43
2018-11-14T11:53:50.858Z,18.80
2018-11-14T11:56:18.898Z,17.37
2018-11-14T11:58:46.920Z,20.70
2018-11-14T12:01:15.031Z,19.83
2018-11-14T12:03:43.082Z,18.50
2018-11-14T12:06:11.271Z,20.53
2018-11-14T12:08:39.243Z,19.43
2018-11-14T12:11:07.467Z,19.57
2018-11-14T12:13:36.689Z,19.80
2018-11-14T12:16:04.796Z,18.17
2018-11-14T12:18:32.841Z,18.87
2018-11-14T12:21:00.913Z,19.20
2018-11-14T12:23:28.988Z,19.00
2018-11-14T12:25:57.065Z,21.73
2018-11-14T12:28:25.105Z,19.53
2018-11-14T12:30:53.312Z,24.30
2018-11-14T12:33:21.230Z,19.77
2018-11-14T12:35:49.326Z,19.23
2018-11-14T12:38:17.360Z,19.23
2018-11-14T12:40:45.397Z,18.73
2018-11-14T12:43:13.493Z,17.57
2018-11-14T12:45:41.548Z,21.00
2018-11-14T12:48:09.689Z,21.40
2018-11-14T12:50:37.711Z,21.10
2018-11-14T12:53:05.768Z,18.37
2018-11-14T12:55:33.825Z,26.33
2018-11-14T12:58:01.873Z,20.83
2018-11-14T13:00:29.926Z,21.90
2018-11-14T13:02:57.961Z,22.57
2018-11-14T13:05:26.016Z,17.57
2018-11-14T13:07:54.098Z,25.43
2018-11-14T13:10:22.122Z,23.57
2018-11-14T13:12:50.562Z,22.50
2018-11-14T13:15:19.589Z,23.37
2018-11-14T13:17:47.660Z,25.70
2018-11-14T13:20:17.540Z,23.33
2018-11-14T13:22:45.808Z,20.53
2018-11-14T13:25:14.597Z,23.33
2018-11-14T13:27:43.885Z,24.17
2018-11-14T13:30:13.573Z,26.40
2018-11-14T13:32:41.788Z,23.57
2018-11-14T13:35:11.641Z,26.43
2018-11-14T13:37:39.668Z,22.50
2018-11-14T13:40:08.607Z,18.53
2018-11-14T13:42:36.678Z,25.17
2018-11-14T13:45:05.630Z,17.03
2018-11-14T13:47:33.692Z,16.40
2018-11-14T13:50:01.880Z,16.17
2018-11-14T13:52:30.797Z,25.33
2018-11-14T13:54:59.659Z,20.17
2018-11-14T13:57:28.002Z,18.83
2018-11-14T13:59:56.200Z,19.87
2018-11-14T14:02:24.220Z,20.27
2018-11-14T14:04:52.273Z,20.40
2018-11-14T14:07:20.316Z,16.67
2018-11-14T14:09:48.400Z,24.10
2018-11-14T14:12:16.464Z,23.90
2018-11-14T14:14:44.517Z,21.00
2018-11-14T14:17:12.584Z,22.23
2018-11-14T14:19:40.657Z,22.10
2018-11-14T14:22:08.829Z,23.23
2018-11-14T14:24:36.882Z,24.73
2018-11-14T14:27:05.080Z,26.07
2018-11-14T14:29:33.116Z,21.77
2018-11-14T14:32:01.193Z,20.60
2018-11-14T14:34:29.245Z,19.67
2018-11-14T14:36:57.289Z,21.17
2018-11-14T14:39:25.345Z,22.07
2018-11-14T14:41:53.368Z,21.73
2018-11-14T14:44:21.435Z,25.07
2018-11-14T14:46:49.468Z,24.27
2018-11-14T14:49:17.536Z,21.50
2018-11-14T14:51:45.577Z,24.90
2018-11-14T14:54:13.759Z,23.63
2018-11-14T14:56:41.842Z,23.87
2018-11-14T14:59:09.903Z,24.77
2018-11-14T15:01:37.927Z,25.30
2018-11-14T15:04:06.870Z,25.47
2018-11-14T15:06:34.904Z,26.13
2018-11-14T15:09:02.933Z,22.60
2018-11-14T15:11:31.104Z,30.80
2018-11-14T15:13:59.118Z,23.93
2018-11-14T15:16:27.204Z,25.20
2018-11-14T15:18:55.233Z,27.90
2018-11-14T15:21:24.019Z,25.13
2018-11-14T15:23:52.080Z,30.87
2018-11-14T15:26:20.123Z,31.13
2018-11-14T15:28:48.220Z,24.93
2018-11-14T15:31:16.244Z,28.83
2018-11-14T15:33:44.325Z,26.40
2018-11-14T15:36:12.390Z,26.77
2018-11-14T15:38:40.423Z,32.30
2018-11-14T15:41:08.486Z,31.43
2018-11-14T15:43:36.515Z,31.43
2018-11-14T15:46:04.570Z,30.73
2018-11-14T15:48:32.600Z,31.70
2018-11-14T15:51:00.677Z,29.60
2018-11-14T15:53:28.719Z,36.73
2018-11-14T15:55:56.794Z,29.37
2018-11-14T15:58:24.829Z,30.53
2018-11-14T16:00:52.849Z,34.83
2018-11-14T16:03:21.549Z,33.27
2018-11-14T16:05:49.713Z,34.93
2018-11-14T16:08:18.254Z,32.03
2018-11-14T16:10:46.296Z,32.03
2018-11-14T16:13:14.394Z,34.87
2018-11-14T16:15:42.466Z,35.40
2018-11-14T16:18:10.580Z,37.07
2018-11-14T16:20:38.629Z,31.83
2018-11-14T16:23:06.666Z,40.93
2018-11-14T16:25:34.721Z,33.50
2018-11-14T16:28:03.045Z,51.27
2018-11-14T16:30:33.194Z,57.87
2018-11-14T16:33:02.652Z,36.30
2018-11-14T16:35:30.682Z,29.27
2018-11-14T16:37:58.829Z,34.90
2018-11-14T16:40:29.193Z,31.80
2018-11-14T16:42:58.193Z,32.77
2018-11-14T16:45:26.253Z,29.23
2018-11-14T16:47:54.292Z,29.67
2018-11-14T16:50:22.841Z,30.50
2018-11-14T16:52:50.915Z,33.27
2018-11-14T16:55:19.981Z,31.43
2018-11-14T16:57:48.850Z,32.10
2018-11-14T17:00:19.790Z,35.63
2018-11-14T17:02:47.833Z,36.03
2018-11-14T17:05:16.243Z,45.03
2018-11-14T17:07:44.335Z,38.73
2018-11-14T17:10:14.453Z,47.67
2018-11-14T17:12:43.302Z,38.67
2018-11-14T17:15:12.921Z,36.83
2018-11-14T17:17:41.207Z,39.13
2018-11-14T17:20:10.729Z,33.67
2018-11-14T17:22:38.874Z,37.87
2018-11-14T17:25:07.235Z,37.00
2018-11-14T17:27:35.321Z,40.47
2018-11-14T17:30:03.472Z,42.37
2018-11-14T17:32:31.552Z,36.03
2018-11-14T17:34:59.657Z,40.70
2018-11-14T17:37:27.784Z,40.47
2018-11-14T17:39:55.918Z,37.60
2018-11-14T17:42:24.047Z,40.60
2018-11-14T17:44:52.121Z,39.50
2018-11-14T17:47:20.413Z,43.13
2018-11-14T17:49:48.466Z,42.63
2018-11-14T17:52:16.582Z,42.93
2018-11-14T17:54:44.663Z,44.03
2018-11-14T17:57:12.824Z,40.03
2018-11-14T17:59:40.961Z,40.97
2018-11-14T18:02:08.994Z,42.27
2018-11-14T18:04:37.113Z,42.33
2018-11-14T18:07:05.243Z,42.50
2018-11-14T18:09:33.393Z,39.27
2018-11-14T18:12:01.514Z,39.43
2018-11-14T18:14:29.609Z,39.70
2018-11-14T18:16:57.654Z,38.93
2018-11-14T18:19:25.711Z,37.13
2018-11-14T18:21:53.806Z,32.27
2018-11-14T18:24:21.874Z,36.57
2018-11-14T18:26:49.938Z,39.23
2018-11-14T18:29:18.007Z,41.90
2018-11-14T18:31:46.172Z,43.07
2018-11-14T18:34:14.266Z,37.10
2018-11-14T18:36:42.342Z,38.47
2018-11-14T18:39:12.354Z,40.23
2018-11-14T18:41:40.500Z,41.33
2018-11-14T18:44:08.589Z,36.80
2018-11-14T18:46:36.682Z,42.33
2018-11-14T18:49:04.989Z,33.30
2018-11-14T18:51:33.833Z,39.80
2018-11-14T18:54:01.911Z,35.80
2018-11-14T18:56:30.030Z,33.27
2018-11-14T18:58:58.752Z,32.47
2018-11-14T19:01:26.825Z,37.53
2018-11-14T19:03:54.951Z,34.17
2018-11-14T19:06:23.060Z,39.80
2018-11-14T19:08:51.135Z,40.83
2018-11-14T19:11:19.257Z,36.77
2018-11-14T19:13:47.311Z,39.50
2018-11-14T19:16:15.507Z,38.90
2018-11-14T19:18:43.674Z,40.60
2018-11-14T19:21:11.737Z,44.20
2018-11-14T19:23:39.810Z,39.53
2018-11-14T19:26:07.886Z,40.73
2018-11-14T19:28:35.978Z,44.17
2018-11-14T19:31:04.094Z,41.23
2018-11-14T19:33:32.129Z,39.37
2018-11-14T19:36:00.233Z,41.53
2018-11-14T19:38:34.868Z,38.20
2018-11-14T19:41:03.031Z,37.63
2018-11-14T19:43:31.102Z,37.20
2018-11-14T19:45:59.217Z,37.67
2018-11-14T19:48:28.639Z,34.93
2018-11-14T19:50:57.243Z,43.90
2018-11-14T19:53:25.993Z,38.97
2018-11-14T19:55:55.008Z,37.23
2018-11-14T19:58:23.208Z,41.50
2018-11-14T20:00:51.310Z,39.17
2018-11-14T20:03:19.370Z,38.10
2018-11-14T20:05:47.466Z,37.13
2018-11-14T20:08:15.541Z,42.63
2018-11-14T20:10:43.746Z,34.13
2018-11-14T20:13:11.907Z,38.57
2018-11-14T20:15:39.998Z,36.13
2018-11-14T20:18:08.717Z,37.13
2018-11-14T20:20:38.128Z,39.10
2018-11-14T20:23:06.455Z,42.13
2018-11-14T20:25:35.018Z,36.03
2018-11-14T20:28:03.014Z,34.03
2018-11-14T20:30:33.871Z,35.73
2018-11-14T20:33:03.862Z,38.33
2018-11-14T20:35:32.041Z,35.70
2018-11-14T20:38:00.206Z,36.37
2018-11-14T20:40:28.432Z,40.57
2018-11-14T20:42:56.974Z,37.20
2018-11-14T20:45:26.229Z,38.13
2018-11-14T20:47:54.674Z,33.80
2018-11-14T20:50:23.907Z,38.97
2018-11-14T20:52:53.812Z,36.20
2018-11-14T20:55:21.941Z,34.93
2018-11-14T20:57:50.065Z,36.20
2018-11-14T21:00:21.462Z,42.10
2018-11-14T21:02:50.289Z,40.90
2018-11-14T21:05:19.519Z,38.07
2018-11-14T21:07:48.059Z,36.27
2018-11-14T21:10:17.929Z,39.17
2018-11-14T21:12:47.700Z,37.07
2018-11-14T21:15:19.069Z,39.27
2018-11-14T21:17:48.194Z,35.13
2018-11-14T21:20:16.593Z,35.37
2018-11-14T21:22:45.141Z,32.93
2018-11-14T21:25:14.758Z,32.07
2018-11-14T21:27:44.320Z,32.93
2018-11-14T21:30:14.122Z,29.97
2018-11-14T21:32:42.824Z,36.30
2018-11-14T21:35:14.811Z,28.80
2018-11-14T21:37:44.136Z,31.87
2018-11-14T21:40:13.315Z,34.60
2018-11-14T21:42:48.256Z,31.80
2018-11-14T21:45:18.674Z,36.50
2018-11-14T21:47:53.167Z,30.20
2018-11-14T21:50:22.695Z,34.27
2018-11-14T21:52:51.276Z,34.17
2018-11-14T21:55:19.694Z,34.90
2018-11-14T21:57:47.999Z,32.77
2018-11-14T22:00:20.160Z,36.03
2018-11-14T22:02:49.977Z,31.40
2018-11-14T22:05:18.458Z,33.37
2018-11-14T22:07:46.761Z,32.50
2018-11-14T22:10:16.846Z,31.47
2018-11-14T22:12:45.744Z,29.93
2018-11-14T22:15:15.622Z,27.47
2018-11-14T22:17:43.970Z,34.33
2018-11-14T22:20:13.759Z,28.00
2018-11-14T22:22:42.799Z,25.97
2018-11-14T22:25:12.472Z,28.93
2018-11-14T22:27:41.155Z,22.90
2018-11-14T22:30:12.582Z,28.73
2018-11-14T22:32:41.017Z,30.87
2018-11-14T22:35:10.652Z,24.53
2018-11-14T22:37:39.137Z,25.83
2018-11-14T22:40:09.493Z,23.67
2018-11-14T22:42:37.781Z,29.93
2018-11-14T22:45:08.482Z,39.63
2018-11-14T22:47:37.178Z,35.57
2018-11-14T22:50:07.070Z,27.27
2018-11-14T22:52:35.566Z,29.03
2018-11-14T22:55:03.877Z,26.27
2018-11-14T22:57:32.141Z,29.67
2018-11-14T23:00:00.426Z,30.03
2018-11-14T23:02:28.705Z,23.80
2018-11-14T23:04:57.014Z,22.90
2018-11-14T23:07:25.271Z,29.30
2018-11-14T23:09:53.614Z,26.87
2018-11-14T23:12:21.873Z,28.90
2018-11-14T23:14:50.213Z,26.70
2018-11-14T23:17:18.472Z,27.33
2018-11-14T23:19:46.749Z,23.43
2018-11-14T23:22:15.054Z,26.07
2018-11-14T23:24:43.421Z,24.33
2018-11-14T23:27:11.809Z,27.73
2018-11-14T23:29:40.242Z,23.83
2018-11-14T23:32:08.642Z,25.90
2018-11-14T23:34:41.186Z,21.90
2018-11-14T23:37:09.517Z,23.77
2018-11-14T23:39:37.800Z,26.10
2018-11-14T23:42:06.102Z,25.97
2018-11-14T23:44:34.484Z,29.63
2018-11-14T23:47:02.781Z,25.87
2018-11-14T23:49:31.127Z,28.17
2018-11-14T23:51:59.415Z,25.80
2018-11-14T23:54:27.726Z,28.23
2018-11-14T23:56:56.138Z,26.63
2018-11-14T23:59:24.496Z,30.10
